Time;durP1;ratioP1;P1;durP2;ratioP2;P2;SDS_P1;SDS_P2;PMS_P1;PMS_P2;Temp;Humidity;BMP_temperature;BMP_pressure;BME280_temperature;BME280_humidity;BME280_pressure;Samples;Min_cycle;Max_cycle;Signal;HPM_P1;HPM_P2
2023/10/10 05:25:13;;;;;;;0.40;0.40;;;10.60;99.90;;;;;;5033315;28;20559;-60
2023/10/10 05:27:42;;;;;;;0.40;0.40;;;10.60;99.90;;;;;;5033215;28;20162;-60
2023/10/10 05:30:22;;;;;;;0.30;0.20;;;10.60;99.90;;;;;;5033744;28;20575;-60
2023/10/10 05:33:04;;;;;;;0.30;0.20;;;10.60;99.90;;;;;;5033732;28;20687;-61
2023/10/10 05:35:32;;;;;;;0.30;0.30;;;10.60;99.90;;;;;;5036792;28;20201;-58
2023/10/10 05:38:02;;;;;;;0.30;0.30;;;10.60;99.90;;;;;;5052188;28;20182;-60
2023/10/10 05:40:28;;;;;;;0.30;0.30;;;10.70;99.90;;;;;;5053187;28;20260;-58
2023/10/10 05:42:57;;;;;;;0.30;0.30;;;10.60;99.90;;;;;;5052535;28;20269;-59
2023/10/10 05:45:23;;;;;;;0.30;0.30;;;10.60;99.90;;;;;;5052681;28;20518;-58
2023/10/10 05:47:48;;;;;;;0.30;0.27;;;10.60;99.90;;;;;;5052266;28;20270;-59
2023/10/10 05:50:14;;;;;;;0.30;0.20;;;10.60;99.90;;;;;;5052257;28;20631;-59
2023/10/10 05:52:46;;;;;;;0.30;0.30;;;10.60;99.90;;;;;;5034702;28;20825;-56
2023/10/10 05:55:12;;;;;;;0.30;0.20;;;10.70;99.90;;;;;;5043380;28;20186;-57
2023/10/10 05:57:38;;;;;;;0.50;0.50;;;10.70;99.90;;;;;;5034713;28;20185;-59
2023/10/10 06:00:12;;;;;;;0.30;0.30;;;10.70;99.90;;;;;;5052220;28;20181;-60
2023/10/10 06:02:38;;;;;;;0.30;0.30;;;10.80;99.90;;;;;;5052653;28;20192;-58
2023/10/10 06:05:05;;;;;;;0.50;0.50;;;10.80;99.90;;;;;;5052868;28;20197;-58
2023/10/10 06:07:32;;;;;;;0.30;0.30;;;10.80;99.90;;;;;;5053057;28;20195;-59
2023/10/10 06:09:58;;;;;;;0.30;0.30;;;10.90;99.90;;;;;;5052434;28;20256;-60
2023/10/10 06:12:24;;;;;;;0.73;0.73;;;11.00;99.90;;;;;;5051777;28;20662;-59
2023/10/10 06:14:50;;;;;;;0.30;0.30;;;11.10;99.90;;;;;;5052678;28;20440;-61
2023/10/10 06:17:16;;;;;;;0.30;0.27;;;11.20;99.90;;;;;;5052790;28;20178;-62
2023/10/10 06:19:45;;;;;;;0.30;0.20;;;11.30;99.90;;;;;;5053035;28;20169;-60
2023/10/10 06:22:14;;;;;;;0.32;0.32;;;11.30;99.90;;;;;;5052547;28;20265;-61
2023/10/10 06:24:41;;;;;;;0.30;0.30;;;11.30;99.90;;;;;;5051800;28;20547;-60
2023/10/10 06:27:09;;;;;;;0.37;0.37;;;11.40;99.90;;;;;;5052934;28;20523;-60
2023/10/10 06:29:35;;;;;;;0.30;0.30;;;11.50;99.90;;;;;;5051171;28;20505;-61
2023/10/10 06:32:02;;;;;;;0.30;0.30;;;11.60;99.90;;;;;;5046064;28;20567;-59
2023/10/10 06:34:34;;;;;;;0.30;0.30;;;11.70;99.90;;;;;;5032684;28;20414;-59
2023/10/10 06:37:07;;;;;;;0.30;0.20;;;11.80;99.90;;;;;;5047008;28;20415;-60
2023/10/10 06:39:54;;;;;;;0.30;0.30;;;12.00;99.90;;;;;;5048965;28;20418;-59
2023/10/10 06:42:27;;;;;;;0.30;0.30;;;12.10;99.90;;;;;;5032990;28;20419;-59
2023/10/10 06:44:55;;;;;;;0.30;0.20;;;12.20;99.90;;;;;;5034496;28;20429;-60
2023/10/10 06:47:21;;;;;;;0.30;0.30;;;12.40;99.90;;;;;;5051821;28;20421;-60
2023/10/10 06:49:56;;;;;;;0.30;0.30;;;12.40;99.90;;;;;;5039289;28;20410;-60
2023/10/10 06:52:23;;;;;;;0.30;0.30;;;12.50;99.90;;;;;;5034941;28;20226;-59
2023/10/10 06:54:55;;;;;;;0.30;0.20;;;12.60;99.90;;;;;;5038755;28;20434;-60
2023/10/10 06:57:44;;;;;;;0.30;0.30;;;12.60;99.90;;;;;;5056468;28;20410;-60
2023/10/10 07:02:47;;;;;;;0.30;0.20;;;12.90;99.90;;;;;;5056792;28;20497;-60
2023/10/10 07:05:15;;;;;;;0.30;0.30;;;12.90;99.90;;;;;;5056252;28;20788;-61
2023/10/10 07:07:41;;;;;;;0.30;0.30;;;13.00;99.90;;;;;;5055697;28;20521;-61
2023/10/10 07:10:09;;;;;;;0.30;0.30;;;13.10;99.90;;;;;;5038205;28;20426;-60
2023/10/10 07:12:35;;;;;;;0.40;0.40;;;13.30;99.90;;;;;;5056125;28;20813;-62
2023/10/10 07:15:06;;;;;;;0.30;0.20;;;13.60;99.90;;;;;;5055807;28;20431;-61
2023/10/10 07:17:32;;;;;;;0.30;0.30;;;14.00;99.90;;;;;;5056220;28;20419;-61
2023/10/10 07:22:34;;;;;;;0.30;0.30;;;15.00;99.90;;;;;;5055826;28;20422;-62
2023/10/10 07:25:17;;;;;;;0.30;0.30;;;15.70;99.90;;;;;;5055619;28;20427;-59
2023/10/10 07:27:43;;;;;;;0.30;0.30;;;16.60;99.90;;;;;;5056035;28;20981;-60
2023/10/10 07:32:42;;;;;;;0.30;0.27;;;18.30;99.90;;;;;;5055923;28;20546;-59
2023/10/10 07:35:14;;;;;;;0.40;0.40;;;19.00;99.90;;;;;;5055390;28;20433;-59
2023/10/10 07:37:41;;;;;;;0.30;0.30;;;19.70;99.90;;;;;;5055109;28;20399;-64
2023/10/10 07:40:19;;;;;;;0.30;0.20;;;20.20;99.90;;;;;;5045545;28;20405;-59
2023/10/10 07:42:49;;;;;;;0.30;0.20;;;20.60;99.90;;;;;;5035778;28;20801;-59
2023/10/10 07:45:18;;;;;;;0.60;0.50;;;20.90;99.90;;;;;;5017328;28;20962;-59
2023/10/10 07:50:34;;;;;;;0.30;0.30;;;21.20;99.10;;;;;;5045856;28;20477;-59
2023/10/10 07:53:06;;;;;;;0.30;0.20;;;21.40;98.40;;;;;;5044727;28;21002;-59
2023/10/10 07:58:17;;;;;;;0.30;0.30;;;22.30;98.30;;;;;;5035481;28;20392;-60
2023/10/10 08:00:44;;;;;;;0.60;0.40;;;22.80;96.70;;;;;;5035044;28;20767;-59
2023/10/10 08:03:19;;;;;;;0.77;0.77;;;23.20;96.20;;;;;;5035427;28;20201;-59
2023/10/10 08:05:48;;;;;;;0.60;0.50;;;23.50;94.50;;;;;;5049735;28;20516;-59
2023/10/10 08:08:15;;;;;;;0.43;0.43;;;23.70;94.00;;;;;;5055035;28;20776;-59
2023/10/10 08:10:44;;;;;;;0.30;0.20;;;23.80;93.50;;;;;;5055158;28;20461;-59
2023/10/10 08:13:14;;;;;;;0.30;0.20;;;23.70;93.60;;;;;;5055149;28;20437;-59
2023/10/10 08:18:41;;;;;;;0.43;0.43;;;23.60;94.00;;;;;;5055290;28;20385;-60
2023/10/10 08:23:31;;;;;;;0.30;0.20;;;24.20;93.70;;;;;;5055068;28;20419;-59
2023/10/10 08:25:57;;;;;;;0.40;0.40;;;24.60;93.30;;;;;;5054428;28;20407;-59
2023/10/10 08:28:25;;;;;;;0.50;0.50;;;25.10;92.40;;;;;;5054883;28;20387;-59
2023/10/10 08:30:52;;;;;;;0.50;0.50;;;25.20;91.70;;;;;;5054403;28;20651;-59
2023/10/10 08:33:18;;;;;;;0.70;0.70;;;25.30;90.80;;;;;;5054750;28;20462;-59
2023/10/10 08:35:45;;;;;;;0.40;0.40;;;25.30;91.10;;;;;;5052896;28;20490;-59
2023/10/10 08:38:13;;;;;;;0.40;0.30;;;25.40;90.90;;;;;;5054417;28;20907;-59
2023/10/10 08:40:42;;;;;;;1.17;1.17;;;25.40;91.60;;;;;;5032928;28;20392;-58
2023/10/10 08:43:09;;;;;;;0.30;0.30;;;25.40;91.00;;;;;;5033791;28;20419;-58
2023/10/10 08:45:40;;;;;;;1.90;1.37;;;25.30;90.70;;;;;;5039024;28;20422;-58
2023/10/10 08:48:12;;;;;;;0.30;0.30;;;25.10;91.50;;;;;;5054222;28;20408;-58
2023/10/10 08:50:42;;;;;;;0.40;0.40;;;25.30;91.30;;;;;;5054513;28;20475;-59
2023/10/10 08:53:12;;;;;;;0.37;0.37;;;25.70;90.70;;;;;;5054362;28;20455;-57
2023/10/10 08:55:41;;;;;;;1.37;1.27;;;26.00;90.50;;;;;;5053801;28;20395;-58
2023/10/10 08:58:08;;;;;;;0.57;0.57;;;26.60;90.20;;;;;;5054214;28;20529;-58
2023/10/10 09:00:34;;;;;;;0.60;0.60;;;27.30;87.90;;;;;;5053528;28;20449;-60
2023/10/10 09:03:00;;;;;;;0.63;0.60;;;27.70;86.40;;;;;;5054326;28;20383;-59
2023/10/10 09:05:29;;;;;;;1.17;0.57;;;28.20;85.20;;;;;;5053503;28;20797;-58
2023/10/10 09:08:05;;;;;;;0.97;0.97;;;28.60;82.30;;;;;;5036133;28;20551;-59
2023/10/10 09:10:39;;;;;;;0.67;0.67;;;28.70;80.80;;;;;;5054133;28;20382;-58
2023/10/10 09:13:07;;;;;;;0.90;0.63;;;28.70;82.00;;;;;;5035255;28;20978;-59
2023/10/10 09:15:37;;;;;;;0.50;0.40;;;29.00;80.80;;;;;;5053106;28;20453;-60
2023/10/10 09:18:14;;;;;;;0.63;0.63;;;29.20;80.40;;;;;;5053488;28;20419;-59
2023/10/10 09:20:40;;;;;;;2.20;0.77;;;29.20;79.80;;;;;;5054082;28;20473;-59
2023/10/10 09:23:24;;;;;;;0.30;0.20;;;29.10;79.60;;;;;;5053812;28;20477;-60
2023/10/10 09:26:12;;;;;;;0.50;0.50;;;28.90;79.50;;;;;;5050958;28;20197;-59
2023/10/10 09:28:49;;;;;;;0.47;0.47;;;28.80;79.70;;;;;;5037660;28;20424;-60
2023/10/10 09:31:31;;;;;;;0.40;0.30;;;28.90;79.80;;;;;;5053113;28;20445;-58
2023/10/10 09:34:03;;;;;;;0.40;0.40;;;29.00;80.50;;;;;;5051140;28;20427;-58
2023/10/10 09:36:29;;;;;;;0.93;0.93;;;28.90;80.40;;;;;;5053358;28;20458;-59
2023/10/10 09:39:09;;;;;;;0.30;0.30;;;29.00;80.30;;;;;;5053526;28;20473;-59
2023/10/10 09:42:00;;;;;;;0.50;0.50;;;28.90;80.40;;;;;;5053151;28;20391;-60
2023/10/10 09:49:43;;;;;;;1.63;1.13;;;28.80;80.60;;;;;;5053847;28;20446;-60
2023/10/10 09:58:00;;;;;;;1.77;0.73;;;29.00;78.70;;;;;;5053594;28;20398;-63
2023/10/10 10:09:31;;;;;;;1.07;0.70;;;28.70;77.90;;;;;;5053355;28;20438;-60
2023/10/10 10:12:29;;;;;;;0.40;0.40;;;28.70;77.30;;;;;;5053267;28;20433;-60
2023/10/10 10:15:16;;;;;;;0.60;0.50;;;28.90;76.90;;;;;;5052776;28;20428;-60
2023/10/10 10:17:56;;;;;;;0.50;0.50;;;28.80;76.60;;;;;;5052648;28;20418;-63
2023/10/10 10:20:22;;;;;;;0.60;0.60;;;28.80;77.70;;;;;;5047096;28;20402;-61
2023/10/10 10:22:59;;;;;;;0.40;0.40;;;28.70;77.70;;;;;;5033549;28;20387;-61
2023/10/10 10:25:28;;;;;;;0.30;0.20;;;28.50;77.50;;;;;;5037102;28;20436;-62
2023/10/10 10:28:14;;;;;;;0.40;0.40;;;28.30;77.50;;;;;;5037077;28;20409;-60
2023/10/10 10:30:50;;;;;;;0.40;0.37;;;28.20;78.50;;;;;;5021999;28;20439;-60
2023/10/10 10:33:22;;;;;;;0.63;0.53;;;28.10;80.10;;;;;;5056844;28;20438;-63
2023/10/10 10:35:56;;;;;;;0.30;0.30;;;28.10;79.50;;;;;;5056704;28;20407;-61
2023/10/10 10:38:25;;;;;;;0.60;0.60;;;28.00;79.60;;;;;;5056678;28;20414;-62
2023/10/10 10:41:04;;;;;;;0.40;0.40;;;28.10;78.40;;;;;;5056859;28;20408;-63
2023/10/10 10:43:33;;;;;;;0.30;0.30;;;28.20;79.30;;;;;;5056900;28;20385;-60
2023/10/10 10:46:14;;;;;;;0.63;0.63;;;28.30;77.40;;;;;;5054969;28;20448;-61
2023/10/10 10:48:54;;;;;;;0.30;0.20;;;28.40;76.50;;;;;;5056458;28;20402;-63
2023/10/10 10:51:32;;;;;;;0.30;0.23;;;28.60;75.70;;;;;;5046138;28;20474;-63
2023/10/10 10:53:58;;;;;;;0.40;0.40;;;28.70;72.90;;;;;;5056040;28;20514;-62
2023/10/10 10:59:15;;;;;;;0.47;0.47;;;28.20;74.60;;;;;;5056819;28;20400;-60
2023/10/10 11:01:57;;;;;;;0.73;0.40;;;28.00;74.30;;;;;;5055923;28;20540;-61
2023/10/10 11:07:04;;;;;;;1.13;1.13;;;27.70;74.20;;;;;;5046473;28;20962;-60
2023/10/10 11:09:32;;;;;;;0.40;0.40;;;27.50;74.50;;;;;;5036276;28;20748;-63
2023/10/10 11:12:02;;;;;;;0.30;0.20;;;27.30;75.40;;;;;;5049079;28;20434;-62
2023/10/10 11:14:33;;;;;;;0.40;0.33;;;27.10;76.50;;;;;;5055404;28;20486;-58
2023/10/10 11:16:59;;;;;;;0.30;0.20;;;26.90;76.00;;;;;;5055275;28;20427;-61
2023/10/10 11:19:38;;;;;;;0.40;0.40;;;26.70;76.40;;;;;;5043912;28;20457;-61
2023/10/10 11:22:05;;;;;;;0.53;0.30;;;26.50;76.30;;;;;;5046905;28;20470;-61
2023/10/10 11:24:33;;;;;;;1.63;0.30;;;26.20;77.60;;;;;;5054684;28;20800;-62
2023/10/10 11:29:47;;;;;;;0.30;0.30;;;26.00;78.20;;;;;;5053901;28;20427;-59
2023/10/10 11:32:24;;;;;;;0.30;0.20;;;25.80;77.90;;;;;;5055363;28;20828;-60
2023/10/10 11:34:57;;;;;;;0.40;0.30;;;25.60;77.70;;;;;;5053932;28;20741;-59
2023/10/10 11:37:26;;;;;;;0.67;0.50;;;25.50;78.70;;;;;;5043528;28;20422;-60
2023/10/10 11:42:57;;;;;;;0.30;0.30;;;25.40;79.50;;;;;;5052454;28;20488;-61
2023/10/10 11:45:27;;;;;;;0.30;0.30;;;25.20;79.50;;;;;;5051032;28;20817;-61
2023/10/10 11:48:00;;;;;;;0.30;0.30;;;25.20;80.30;;;;;;5051799;28;20941;-63
2023/10/10 11:50:45;;;;;;;0.50;0.50;;;25.20;80.40;;;;;;5054949;28;20427;-60
2023/10/10 11:53:19;;;;;;;0.40;0.30;;;25.10;81.10;;;;;;5054531;28;20505;-61
2023/10/10 11:55:45;;;;;;;0.40;0.40;;;25.10;81.70;;;;;;5054693;28;20401;-62
2023/10/10 11:58:17;;;;;;;1.37;0.40;;;25.00;81.80;;;;;;5055097;28;20420;-61
2023/10/10 12:01:03;;;;;;;0.30;0.20;;;24.90;80.70;;;;;;5055134;28;20506;-62
2023/10/10 12:06:14;;;;;;;0.53;0.53;;;24.80;80.30;;;;;;5054551;28;20403;-61
2023/10/10 12:08:50;;;;;;;0.30;0.30;;;24.70;78.50;;;;;;5055471;28;20387;-62
2023/10/10 12:11:20;;;;;;;0.30;0.20;;;24.60;78.30;;;;;;5055040;28;20753;-63
2023/10/10 12:13:46;;;;;;;0.30;0.30;;;24.60;79.00;;;;;;5054603;28;20445;-64
2023/10/10 12:16:12;;;;;;;0.30;0.30;;;24.70;79.70;;;;;;5054914;28;20807;-63
2023/10/10 12:18:52;;;;;;;0.40;0.40;;;24.70;79.70;;;;;;5055151;28;20396;-63
2023/10/10 12:21:21;;;;;;;0.30;0.30;;;24.80;78.80;;;;;;5054955;28;20404;-61
2023/10/10 12:23:48;;;;;;;0.50;0.50;;;24.80;77.60;;;;;;5036008;28;20910;-61
2023/10/10 12:26:13;;;;;;;0.40;0.30;;;24.80;77.40;;;;;;5054157;28;20435;-64
2023/10/10 12:28:39;;;;;;;0.30;0.30;;;24.70;77.30;;;;;;5051182;28;20419;-63
2023/10/10 12:31:08;;;;;;;0.40;0.40;;;24.70;77.00;;;;;;5052279;28;20187;-62
2023/10/10 12:33:36;;;;;;;0.40;0.40;;;24.80;76.90;;;;;;5053547;28;20194;-61
2023/10/10 12:36:09;;;;;;;0.40;0.40;;;24.80;76.40;;;;;;5054085;28;20436;-63
2023/10/10 12:38:35;;;;;;;0.50;0.40;;;24.90;76.30;;;;;;5054429;28;20379;-63
2023/10/10 12:41:00;;;;;;;0.30;0.20;;;24.90;74.70;;;;;;5054066;28;20487;-62
2023/10/10 12:43:26;;;;;;;0.30;0.30;;;24.90;73.80;;;;;;5054283;28;20906;-62
2023/10/10 12:45:54;;;;;;;0.30;0.20;;;25.00;74.10;;;;;;5053702;28;20555;-61
2023/10/10 12:48:20;;;;;;;0.40;0.40;;;25.00;73.80;;;;;;5054554;28;20185;-61
2023/10/10 12:50:50;;;;;;;0.80;0.60;;;25.00;72.10;;;;;;5054153;28;20775;-62
2023/10/10 12:53:20;;;;;;;0.30;0.20;;;24.90;71.20;;;;;;5054296;28;20466;-62
2023/10/10 12:56:00;;;;;;;0.73;0.73;;;24.90;72.30;;;;;;5053779;28;20403;-63
2023/10/10 12:58:28;;;;;;;0.30;0.30;;;25.00;73.10;;;;;;5054354;28;20388;-62
2023/10/10 13:00:54;;;;;;;0.40;0.40;;;25.10;73.50;;;;;;5054380;28;20420;-61
2023/10/10 13:03:28;;;;;;;0.40;0.40;;;25.10;73.70;;;;;;5054105;28;20516;-63
2023/10/10 13:06:01;;;;;;;0.30;0.20;;;25.10;72.90;;;;;;5053822;28;20761;-61
2023/10/10 13:11:20;;;;;;;0.60;0.30;;;25.20;71.50;;;;;;5054437;28;20450;-61
2023/10/10 13:13:51;;;;;;;0.60;0.50;;;25.30;70.90;;;;;;5053660;28;20404;-64
2023/10/10 13:19:06;;;;;;;0.70;0.70;;;25.20;68.70;;;;;;5054133;28;20404;-62
2023/10/10 13:21:34;;;;;;;0.30;0.30;;;25.20;68.80;;;;;;5054035;28;20502;-63
2023/10/10 13:24:01;;;;;;;0.30;0.30;;;25.30;68.60;;;;;;5053369;28;20937;-59
2023/10/10 13:26:27;;;;;;;0.30;0.30;;;25.30;68.40;;;;;;5054100;28;20432;-61
2023/10/10 13:28:53;;;;;;;0.30;0.30;;;25.40;69.50;;;;;;5053890;28;20501;-63
2023/10/10 13:31:19;;;;;;;0.30;0.30;;;25.50;69.60;;;;;;5053076;28;20535;-63
2023/10/10 13:33:45;;;;;;;0.30;0.20;;;25.50;69.70;;;;;;5035645;28;20184;-62
2023/10/10 13:36:14;;;;;;;0.30;0.30;;;25.40;69.00;;;;;;5053459;28;20431;-63
2023/10/10 13:38:47;;;;;;;1.30;1.30;;;25.40;69.90;;;;;;5053076;28;20479;-63
2023/10/10 13:41:16;;;;;;;0.60;0.50;;;25.40;70.90;;;;;;5053292;28;20428;-64
2023/10/10 13:43:47;;;;;;;0.30;0.30;;;25.50;72.50;;;;;;5053477;28;20495;-63
2023/10/10 13:46:13;;;;;;;0.40;0.40;;;25.50;72.90;;;;;;5052778;28;20452;-63
2023/10/10 13:48:40;;;;;;;0.30;0.20;;;25.50;72.60;;;;;;5035363;28;20409;-61
2023/10/10 13:51:07;;;;;;;0.40;0.40;;;25.50;72.30;;;;;;5052850;28;20782;-60
2023/10/10 13:53:34;;;;;;;0.30;0.20;;;25.50;70.50;;;;;;5053373;28;20405;-60
2023/10/10 13:56:04;;;;;;;0.33;0.33;;;25.50;71.20;;;;;;5052452;28;20410;-62
2023/10/10 13:58:30;;;;;;;0.60;0.40;;;25.50;70.30;;;;;;5052421;28;20483;-62
2023/10/10 14:01:18;;;;;;;0.30;0.30;;;25.60;69.70;;;;;;5053141;28;20488;-60
2023/10/10 14:03:46;;;;;;;0.70;0.40;;;25.60;69.60;;;;;;5052559;28;20452;-62
2023/10/10 14:06:16;;;;;;;0.30;0.30;;;25.60;69.80;;;;;;5052586;28;20420;-61
2023/10/10 14:08:47;;;;;;;0.30;0.30;;;25.60;69.80;;;;;;5052956;28;20744;-61
2023/10/10 14:11:20;;;;;;;0.67;0.47;;;25.50;69.70;;;;;;5052791;28;20407;-63
2023/10/10 14:13:50;;;;;;;0.30;0.30;;;25.50;69.00;;;;;;5052841;28;20806;-62
2023/10/10 14:16:17;;;;;;;0.30;0.30;;;25.40;69.30;;;;;;5053324;28;20398;-60
2023/10/10 14:18:47;;;;;;;0.30;0.20;;;25.30;70.20;;;;;;5052844;28;20462;-61
2023/10/10 14:21:16;;;;;;;0.43;0.43;;;25.10;71.40;;;;;;5053262;28;20408;-62
2023/10/10 14:23:42;;;;;;;0.30;0.30;;;25.00;71.00;;;;;;5053091;28;20448;-60
2023/10/10 14:26:27;;;;;;;0.40;0.30;;;24.90;71.10;;;;;;5052338;28;20440;-61
2023/10/10 14:28:53;;;;;;;0.60;0.50;;;24.80;71.50;;;;;;5052841;28;20546;-63
2023/10/10 14:31:24;;;;;;;0.30;0.20;;;24.80;72.40;;;;;;5053055;28;20841;-61
2023/10/10 14:33:50;;;;;;;0.30;0.30;;;24.70;73.30;;;;;;5051964;28;20201;-61
2023/10/10 14:36:17;;;;;;;0.30;0.30;;;24.70;73.60;;;;;;5052816;28;20517;-61
2023/10/10 14:38:47;;;;;;;0.30;0.27;;;24.60;74.00;;;;;;5034724;28;20416;-62
2023/10/10 14:41:20;;;;;;;0.30;0.20;;;24.60;73.60;;;;;;5035040;28;20421;-62
2023/10/10 14:43:54;;;;;;;0.40;0.40;;;24.50;74.30;;;;;;5052591;28;20494;-64
2023/10/10 14:46:27;;;;;;;0.30;0.20;;;24.40;75.10;;;;;;5052836;28;20785;-61
2023/10/10 14:49:06;;;;;;;0.93;0.93;;;24.30;75.50;;;;;;5052305;28;20416;-61
2023/10/10 14:51:36;;;;;;;0.50;0.50;;;24.20;75.60;;;;;;5052749;28;20548;-61
2023/10/10 14:54:12;;;;;;;0.40;0.40;;;24.10;75.90;;;;;;5051973;28;20910;-61
2023/10/10 14:56:45;;;;;;;0.60;0.60;;;24.00;76.60;;;;;;5052691;28;20401;-62
2023/10/10 14:59:31;;;;;;;0.60;0.60;;;23.90;77.10;;;;;;5052573;28;20416;-61
2023/10/10 15:02:01;;;;;;;0.70;0.70;;;23.80;77.60;;;;;;5052788;28;20408;-61
2023/10/10 15:04:30;;;;;;;0.30;0.30;;;23.80;77.60;;;;;;5052165;28;20430;-61
2023/10/10 15:06:57;;;;;;;0.30;0.30;;;23.70;78.00;;;;;;5051741;28;20435;-61
2023/10/10 15:09:25;;;;;;;0.30;0.30;;;23.60;78.00;;;;;;5052300;28;20394;-63
2023/10/10 15:11:53;;;;;;;0.30;0.30;;;23.50;78.30;;;;;;5055902;28;20466;-61
2023/10/10 15:14:19;;;;;;;0.30;0.30;;;23.40;78.30;;;;;;5055953;28;20420;-61
2023/10/10 15:16:47;;;;;;;0.30;0.30;;;23.30;79.00;;;;;;5055499;28;20422;-62
2023/10/10 15:19:13;;;;;;;0.30;0.27;;;23.20;79.40;;;;;;5034528;28;20574;-61
2023/10/10 15:21:40;;;;;;;0.60;0.60;;;23.20;80.10;;;;;;5036085;28;20407;-60
2023/10/10 15:24:11;;;;;;;0.30;0.30;;;23.10;80.60;;;;;;5035464;28;20384;-61
2023/10/10 15:26:40;;;;;;;0.30;0.30;;;22.90;81.00;;;;;;5035640;28;20414;-61
2023/10/10 15:29:11;;;;;;;0.30;0.20;;;22.90;81.20;;;;;;5035865;28;20392;-62
2023/10/10 15:31:38;;;;;;;0.30;0.30;;;22.80;81.80;;;;;;5045595;28;20460;-61
2023/10/10 15:34:04;;;;;;;1.27;0.50;;;22.70;82.40;;;;;;5055149;28;20478;-62
2023/10/10 15:36:32;;;;;;;0.30;0.30;;;22.60;83.10;;;;;;5055385;28;20521;-60
2023/10/10 15:39:06;;;;;;;0.73;0.73;;;22.50;83.30;;;;;;5055427;28;20403;-61
2023/10/10 15:41:34;;;;;;;0.30;0.30;;;22.40;83.80;;;;;;5037764;28;20505;-59
2023/10/10 15:44:03;;;;;;;1.17;0.53;;;22.40;84.20;;;;;;5055133;28;20397;-60
2023/10/10 15:46:34;;;;;;;0.40;0.40;;;22.30;84.70;;;;;;5055068;28;20426;-63
2023/10/10 15:49:00;;;;;;;0.30;0.30;;;22.20;84.80;;;;;;5055051;28;20424;-61
2023/10/10 15:51:27;;;;;;;0.87;0.87;;;22.20;85.50;;;;;;5055307;28;20407;-60
2023/10/10 15:53:54;;;;;;;0.30;0.30;;;22.10;85.90;;;;;;5054744;28;20414;-62
2023/10/10 15:56:27;;;;;;;0.70;0.70;;;22.00;86.20;;;;;;5055210;28;20756;-62
2023/10/10 15:58:53;;;;;;;0.30;0.30;;;21.90;86.80;;;;;;5055176;28;20401;-58
2023/10/10 16:01:27;;;;;;;1.07;1.07;;;21.80;87.20;;;;;;5055213;28;20420;-61
2023/10/10 16:03:55;;;;;;;0.40;0.40;;;21.80;87.10;;;;;;5054883;28;20856;-58
2023/10/10 16:06:22;;;;;;;0.30;0.30;;;21.70;87.60;;;;;;5055109;28;20485;-60
2023/10/10 16:08:52;;;;;;;0.30;0.20;;;21.60;88.10;;;;;;5054981;28;20767;-61
2023/10/10 16:11:23;;;;;;;0.40;0.40;;;21.50;88.40;;;;;;5055015;28;20404;-62
2023/10/10 16:13:49;;;;;;;0.30;0.30;;;21.50;89.00;;;;;;5054301;28;20869;-61
2023/10/10 16:16:18;;;;;;;0.70;0.70;;;21.40;89.50;;;;;;5036735;28;20555;-60
2023/10/10 16:18:45;;;;;;;0.30;0.20;;;21.30;89.90;;;;;;5055135;28;20583;-59
2023/10/10 16:21:14;;;;;;;0.30;0.30;;;21.20;90.20;;;;;;5054140;28;20387;-60
2023/10/10 16:23:43;;;;;;;0.30;0.30;;;21.10;90.30;;;;;;5055111;28;20523;-61
2023/10/10 16:26:14;;;;;;;0.30;0.30;;;21.00;90.50;;;;;;5054418;28;20470;-60
2023/10/10 16:28:40;;;;;;;1.00;1.00;;;21.00;90.60;;;;;;5054402;28;20408;-61
2023/10/10 16:31:10;;;;;;;0.50;0.50;;;20.90;90.80;;;;;;5054712;28;20408;-60
2023/10/10 16:33:40;;;;;;;0.30;0.30;;;20.80;90.90;;;;;;5054242;28;20455;-62
2023/10/10 16:36:16;;;;;;;0.67;0.67;;;20.70;91.10;;;;;;5038789;28;20495;-59
2023/10/10 16:38:43;;;;;;;0.63;0.63;;;20.60;91.30;;;;;;5034158;28;20405;-59
2023/10/10 16:41:09;;;;;;;0.40;0.40;;;20.50;91.70;;;;;;5039813;28;20423;-59
2023/10/10 16:43:38;;;;;;;0.30;0.30;;;20.40;92.00;;;;;;5053880;28;20387;-58
2023/10/10 16:46:09;;;;;;;2.40;0.53;;;20.30;91.70;;;;;;5053586;28;20477;-61
2023/10/10 16:48:44;;;;;;;0.30;0.30;;;20.20;91.60;;;;;;5054500;28;20416;-60
2023/10/10 16:51:12;;;;;;;0.80;0.40;;;20.10;91.90;;;;;;5036500;28;20427;-60
2023/10/10 16:53:43;;;;;;;0.30;0.20;;;20.00;92.70;;;;;;5054137;28;20791;-61
2023/10/10 16:56:10;;;;;;;0.80;0.80;;;19.90;93.40;;;;;;5053548;28;20440;-60
2023/10/10 16:58:40;;;;;;;0.43;0.43;;;19.80;94.00;;;;;;5054476;28;20425;-60
2023/10/10 17:01:12;;;;;;;0.30;0.30;;;19.70;94.40;;;;;;5054097;28;20416;-59
2023/10/10 17:03:39;;;;;;;0.30;0.30;;;19.60;94.30;;;;;;5053807;28;20416;-60
2023/10/10 17:06:05;;;;;;;0.30;0.30;;;19.50;94.40;;;;;;5053175;28;20431;-61
2023/10/10 17:08:32;;;;;;;0.50;0.50;;;19.40;94.40;;;;;;5053733;28;20432;-62
2023/10/10 17:11:05;;;;;;;0.30;0.20;;;19.30;94.50;;;;;;5053692;28;20406;-62
2023/10/10 17:13:37;;;;;;;0.30;0.30;;;19.20;94.50;;;;;;5054015;28;20466;-61
2023/10/10 17:16:11;;;;;;;0.40;0.40;;;19.10;94.50;;;;;;5053197;28;20434;-61
2023/10/10 17:18:42;;;;;;;0.40;0.40;;;19.10;94.70;;;;;;5046501;28;20436;-60
2023/10/10 17:21:08;;;;;;;0.30;0.30;;;18.90;95.20;;;;;;5033787;28;20380;-61
2023/10/10 17:23:35;;;;;;;0.30;0.30;;;18.80;95.70;;;;;;5033731;28;20496;-61
2023/10/10 17:26:04;;;;;;;0.30;0.30;;;18.70;96.00;;;;;;5053093;28;20790;-61
2023/10/10 17:28:30;;;;;;;0.30;0.30;;;18.50;96.10;;;;;;5053743;28;20412;-61
2023/10/10 17:30:58;;;;;;;0.30;0.20;;;18.40;97.00;;;;;;5052591;28;20436;-60
2023/10/10 17:33:24;;;;;;;0.30;0.20;;;18.40;97.40;;;;;;5044349;28;20462;-62
2023/10/10 17:35:50;;;;;;;0.30;0.20;;;18.30;97.50;;;;;;5053468;28;20489;-61
2023/10/10 17:38:18;;;;;;;0.30;0.30;;;18.20;97.80;;;;;;5053308;28;20921;-61
2023/10/10 17:40:44;;;;;;;0.50;0.50;;;18.10;98.20;;;;;;5053506;28;20432;-60
2023/10/10 17:43:09;;;;;;;0.30;0.30;;;18.00;98.70;;;;;;5053392;28;20423;-61
2023/10/10 17:45:42;;;;;;;1.33;1.03;;;17.80;99.00;;;;;;5052559;28;20437;-62
2023/10/10 17:48:08;;;;;;;1.37;1.30;;;17.70;99.60;;;;;;5052953;28;20191;-61
2023/10/10 17:50:40;;;;;;;0.80;0.80;;;17.60;99.90;;;;;;5052387;28;20428;-60
2023/10/10 17:53:12;;;;;;;0.50;0.50;;;17.50;99.90;;;;;;5052934;28;20798;-62
2023/10/10 17:55:52;;;;;;;0.47;0.47;;;17.40;99.90;;;;;;5052944;28;20427;-61
2023/10/10 17:58:18;;;;;;;1.07;1.07;;;17.30;99.90;;;;;;5053208;28;20883;-61
2023/10/10 18:00:48;;;;;;;0.87;0.87;;;17.30;99.90;;;;;;5053507;28;20825;-60
2023/10/10 18:03:14;;;;;;;1.23;1.13;;;17.20;99.90;;;;;;5053086;28;21122;-61
2023/10/10 18:05:41;;;;;;;3.13;0.83;;;17.10;99.90;;;;;;5052466;28;20463;-62
2023/10/10 18:08:07;;;;;;;0.30;0.30;;;17.10;99.90;;;;;;5052576;28;20476;-60
2023/10/10 18:10:37;;;;;;;0.30;0.20;;;17.00;99.90;;;;;;5053062;28;20520;-62
2023/10/10 18:13:11;;;;;;;0.50;0.50;;;16.90;99.90;;;;;;5052758;28;20551;-61
2023/10/10 18:15:38;;;;;;;0.30;0.30;;;16.90;99.90;;;;;;5046071;28;20449;-59
2023/10/10 18:18:07;;;;;;;0.83;0.83;;;16.80;99.90;;;;;;5036128;28;20807;-61
2023/10/10 18:20:34;;;;;;;0.30;0.30;;;16.70;99.90;;;;;;5046905;28;20404;-61
2023/10/10 18:23:01;;;;;;;0.43;0.43;;;16.60;99.90;;;;;;5052723;28;20498;-62
2023/10/10 18:25:31;;;;;;;0.30;0.30;;;16.60;99.90;;;;;;5034515;28;20439;-59
2023/10/10 18:27:56;;;;;;;0.70;0.70;;;16.60;99.90;;;;;;5052831;28;20510;-60
2023/10/10 18:30:22;;;;;;;0.40;0.40;;;16.50;99.90;;;;;;5052599;28;20847;-60
2023/10/10 18:32:51;;;;;;;0.30;0.30;;;16.40;99.90;;;;;;5052578;28;20209;-60
2023/10/10 18:35:18;;;;;;;0.97;0.97;;;16.40;99.90;;;;;;5052109;28;20193;-61
2023/10/10 18:37:45;;;;;;;0.30;0.30;;;16.40;99.90;;;;;;5052372;28;20412;-60
2023/10/10 18:40:11;;;;;;;0.30;0.30;;;16.30;99.90;;;;;;5052956;28;20423;-60
2023/10/10 18:42:46;;;;;;;0.30;0.30;;;16.20;99.90;;;;;;5044071;28;20447;-61
2023/10/10 18:45:16;;;;;;;0.80;0.77;;;16.10;99.90;;;;;;5045680;28;20488;-61
2023/10/10 18:47:49;;;;;;;0.30;0.20;;;16.10;99.90;;;;;;5046653;28;20918;-60
2023/10/10 18:50:18;;;;;;;0.30;0.30;;;16.00;99.90;;;;;;5045823;28;20482;-64
2023/10/10 18:52:56;;;;;;;0.40;0.40;;;15.90;99.90;;;;;;5047646;28;20551;-60
2023/10/10 18:55:25;;;;;;;0.50;0.50;;;15.80;99.90;;;;;;5044561;28;20527;-60
2023/10/10 18:57:56;;;;;;;0.30;0.30;;;15.80;99.90;;;;;;5045183;28;20516;-62
2023/10/10 19:00:32;;;;;;;0.80;0.60;;;15.70;99.90;;;;;;5045056;28;20408;-61
2023/10/10 19:02:59;;;;;;;0.30;0.30;;;15.70;99.90;;;;;;5044499;28;20435;-62
2023/10/10 19:05:26;;;;;;;0.30;0.30;;;15.60;99.90;;;;;;5042663;28;20416;-61
2023/10/10 19:07:56;;;;;;;0.30;0.30;;;15.60;99.90;;;;;;5045845;28;20440;-62
2023/10/10 19:10:25;;;;;;;0.30;0.30;;;15.50;99.90;;;;;;5043756;28;20491;-60
2023/10/10 19:12:52;;;;;;;0.30;0.30;;;15.50;99.90;;;;;;5045911;28;20451;-59
2023/10/10 19:15:18;;;;;;;0.30;0.20;;;15.50;99.90;;;;;;5045454;28;20424;-61
2023/10/10 19:17:46;;;;;;;0.30;0.20;;;15.40;99.90;;;;;;5044260;28;20515;-61
2023/10/10 19:20:16;;;;;;;0.30;0.30;;;15.40;99.90;;;;;;5044421;28;20403;-61
2023/10/10 19:22:42;;;;;;;0.30;0.20;;;15.30;99.90;;;;;;5046589;28;20490;-61
2023/10/10 19:25:11;;;;;;;1.13;0.80;;;15.30;99.90;;;;;;5038329;28;20440;-62